Historical Weather Data

Kanab, UT VWS

Date ET
(Inches)
Rain
(Inches)
Temp °F
Humidity
Avg
Wind MPH
Avg
Solar Wm2
Avg
High Ave Low
08/01/2019 12:00 am 0.212 0.00 90.0 74.8 58.0 55 1.9 308
08/02/2019 12:00 am 0.236 0.00 96.0 79.9 62.0 34 1.6 345
08/03/2019 12:00 am 0.214 0.00 94.0 81.9 69.0 40 1.7 301
08/04/2019 12:00 am 0.226 0.00 95.0 81.5 69.0 42 2.2 316
08/05/2019 12:00 am 0.236 0.00 96.0 81.7 65.0 34 2.0 338
08/06/2019 12:00 am 0.156 0.00 85.0 76.7 66.0 31 1.9 201
08/07/2019 12:00 am 0.183 0.00 88.0 75.3 64.0 37 1.9 262
08/08/2019 12:00 am 0.213 0.00 91.0 75.1 61.0 44 2.2 311
08/09/2019 12:00 am 0.225 0.00 89.0 75.5 62.0 40 3.0 308
08/10/2019 12:00 am 0.225 0.00 90.0 76.6 63.0 40 2.6 326
08/11/2019 12:00 am 0.244 0.00 88.0 75.7 59.0 29 2.9 347
08/12/2019 12:00 am 0.241 0.00 89.0 75.2 57.0 27 2.6 348
08/13/2019 12:00 am 0.240 0.00 94.0 76.0 57.0 23 2.6 350
08/14/2019 12:00 am 0.233 0.00 96.0 78.8 57.0 19 2.0 349
08/15/2019 12:00 am 0.242 0.00 97.0 79.7 57.0 15 2.3 349
08/16/2019 12:00 am 0.255 0.00 96.0 79.0 57.0 14 2.6 350
08/17/2019 12:00 am 0.254 0.00 94.0 77.2 59.0 15 3.0 346
08/18/2019 12:00 am 0.232 0.00 93.0 76.3 57.0 20 2.5 338
08/19/2019 12:00 am 0.227 0.00 91.0 76.0 56.0 19 2.1 341
08/20/2019 12:00 am 0.231 0.00 96.0 77.8 56.0 18 2.2 341
08/21/2019 12:00 am 0.238 0.00 97.0 78.6 59.0 14 2.5 341
08/22/2019 12:00 am 0.244 0.00 92.0 77.5 61.0 15 3.1 323
08/23/2019 12:00 am 0.231 0.00 92.0 75.8 57.0 23 2.6 327
08/24/2019 12:00 am 0.229 0.00 93.0 75.6 57.0 25 2.4 328
08/25/2019 12:00 am 0.225 0.00 94.0 77.0 58.0 31 2.3 325